Time;durP1;ratioP1;P1;durP2;ratioP2;P2;SDS_P1;SDS_P2;PMS_P1;PMS_P2;Temp;Humidity;BMP_temperature;BMP_pressure;BME280_temperature;BME280_humidity;BME280_pressure;Samples;Min_cycle;Max_cycle;Signal;HPM_P1;HPM_P2
2021/11/29 00:01:21;;;;;;;53.90;22.40;;;;;;;5.23;100.00;100953.25;6107773;23;20062;-89
2021/11/29 00:03:47;;;;;;;44.17;20.95;;;;;;;5.24;100.00;100946.97;6132492;23;20015;-86
2021/11/29 00:06:12;;;;;;;55.42;23.10;;;;;;;5.21;100.00;100938.38;6157400;23;20001;-88
2021/11/29 00:08:38;;;;;;;52.83;23.70;;;;;;;5.25;100.00;100935.31;6132239;23;20475;-88
2021/11/29 00:11:04;;;;;;;56.95;24.30;;;;;;;5.18;100.00;100936.81;6132080;23;20008;-87
2021/11/29 00:13:29;;;;;;;64.22;26.05;;;;;;;5.20;100.00;100932.22;6131560;23;20005;-88
2021/11/29 00:15:55;;;;;;;56.70;24.00;;;;;;;5.21;100.00;100943.72;6132384;23;20333;-89
2021/11/29 00:18:21;;;;;;;46.00;21.40;;;;;;;5.19;100.00;100938.53;6132554;23;20009;-86
2021/11/29 00:20:47;;;;;;;44.78;20.58;;;;;;;5.22;100.00;100942.75;6132535;23;20001;-88
2021/11/29 00:23:14;;;;;;;41.95;18.95;;;;;;;5.22;100.00;100945.41;6106953;23;20412;-87
2021/11/29 00:25:41;;;;;;;41.55;19.95;;;;;;;5.18;100.00;100938.66;6132676;23;20429;-89
2021/11/29 00:28:09;;;;;;;40.45;18.95;;;;;;;5.20;100.00;100932.22;6132261;23;20005;-89
2021/11/29 00:30:36;;;;;;;46.28;20.25;;;;;;;5.24;100.00;100938.97;6131516;23;20032;-87
2021/11/29 00:33:02;;;;;;;42.88;18.88;;;;;;;5.21;100.00;100928.59;6108247;23;20033;-87
2021/11/29 00:35:28;;;;;;;43.33;18.52;;;;;;;5.25;100.00;100942.47;6132298;23;20005;-87
2021/11/29 00:37:53;;;;;;;38.17;18.67;;;;;;;5.22;100.00;100937.41;6132234;23;20012;-86
2021/11/29 00:40:19;;;;;;;37.22;17.25;;;;;;;5.14;100.00;100924.78;6131892;23;20036;-88
2021/11/29 00:42:45;;;;;;;36.78;15.52;;;;;;;5.27;100.00;100941.34;6131949;23;20020;-88
2021/11/29 00:45:11;;;;;;;32.22;15.05;;;;;;;5.29;100.00;100944.75;6131932;23;20421;-88
2021/11/29 00:47:37;;;;;;;35.75;15.35;;;;;;;5.30;100.00;100948.25;6157018;23;20001;-87
2021/11/29 00:50:05;;;;;;;44.25;23.55;;;;;;;5.30;100.00;100948.25;6132271;23;20005;-89
2021/11/29 00:52:31;;;;;;;36.83;19.15;;;;;;;5.27;100.00;100932.53;6131700;23;20448;-88
2021/11/29 00:54:57;;;;;;;26.85;12.73;;;;;;;5.28;100.00;100932.38;6156775;23;20009;-89
2021/11/29 00:57:22;;;;;;;27.85;11.85;;;;;;;5.25;100.00;100923.81;6182319;23;20452;-87
2021/11/29 00:59:49;;;;;;;24.92;10.00;;;;;;;5.28;100.00;100928.88;6130928;23;20400;-88
2021/11/29 01:02:15;;;;;;;23.60;10.85;;;;;;;5.40;100.00;100948.25;6156412;23;20012;-87
2021/11/29 01:04:42;;;;;;;25.08;11.40;;;;;;;5.33;100.00;100937.28;6131887;23;20001;-89
2021/11/29 01:07:08;;;;;;;24.88;10.45;;;;;;;5.41;100.00;100950.78;6131636;23;20029;-88
2021/11/29 01:09:34;;;;;;;23.48;10.20;;;;;;;5.42;100.00;100952.44;6156551;23;20441;-88
2021/11/29 01:11:59;;;;;;;21.50;10.05;;;;;;;5.43;100.00;100950.66;6131662;23;20085;-88
2021/11/29 01:14:25;;;;;;;26.52;10.80;;;;;;;5.39;100.00;100951.91;6182501;23;20314;-87
2021/11/29 01:16:51;;;;;;;21.95;9.77;;;;;;;5.44;100.00;100953.16;6156558;23;20005;-88
2021/11/29 01:19:17;;;;;;;20.25;10.25;;;;;;;5.34;100.00;100933.63;6156316;23;20039;-89
2021/11/29 01:21:42;;;;;;;23.55;9.95;;;;;;;5.43;100.00;100948.00;6131581;23;20001;-89
2021/11/29 01:24:08;;;;;;;22.25;9.30;;;;;;;5.39;100.00;100944.72;6132091;23;20059;-88
2021/11/29 01:26:33;;;;;;;22.10;9.65;;;;;;;5.31;100.00;100933.91;6131231;23;20024;-87
2021/11/29 01:28:59;;;;;;;24.05;9.25;;;;;;;5.35;100.00;100934.50;6131423;23;20001;-88
2021/11/29 01:31:25;;;;;;;20.88;9.30;;;;;;;5.40;100.00;100942.91;6156275;23;20090;-87
2021/11/29 01:33:50;;;;;;;24.30;9.63;;;;;;;5.30;100.00;100929.56;6132290;23;20023;-89
2021/11/29 01:36:16;;;;;;;20.58;10.18;;;;;;;5.40;100.00;100937.56;6155399;23;20014;-89
2021/11/29 01:38:42;;;;;;;25.23;11.45;;;;;;;5.33;100.00;100921.28;6155763;23;20092;-88
2021/11/29 01:41:08;;;;;;;23.80;11.02;;;;;;;5.39;100.00;100931.41;6155656;23;20060;-87
2021/11/29 01:43:34;;;;;;;25.17;11.10;;;;;;;5.38;100.00;100918.22;6131770;23;20019;-88
2021/11/29 01:46:00;;;;;;;23.25;11.13;;;;;;;5.42;100.00;100927.63;6156391;23;20000;-88
2021/11/29 01:48:26;;;;;;;24.40;11.27;;;;;;;5.41;100.00;100923.28;6156273;23;20008;-87
2021/11/29 01:50:55;;;;;;;26.95;11.45;;;;;;;5.34;100.00;100911.47;6131462;23;20012;-87
2021/11/29 01:53:23;;;;;;;26.02;12.55;;;;;;;5.33;100.00;100909.78;6131309;23;20444;-89
2021/11/29 01:55:50;;;;;;;27.48;12.63;;;;;;;5.44;100.00;100925.66;6106873;23;20044;-87
2021/11/29 01:58:16;;;;;;;28.27;12.13;;;;;;;5.39;100.00;100915.41;6155860;23;20155;-88
2021/11/29 02:00:46;;;;;;;27.17;11.50;;;;;;;5.40;100.00;100913.56;6131091;23;20041;-86
2021/11/29 02:03:12;;;;;;;28.52;14.93;;;;;;;5.44;100.00;100918.50;6106813;23;20456;-88
2021/11/29 02:05:38;;;;;;;28.90;15.25;;;;;;;5.43;100.00;100910.66;6156231;23;20009;-89
2021/11/29 02:08:05;;;;;;;23.92;11.70;;;;;;;5.37;100.00;100901.38;6131415;23;20076;-88
2021/11/29 02:10:30;;;;;;;26.00;12.40;;;;;;;5.43;100.00;100911.50;6131785;23;20033;-88
2021/11/29 02:12:56;;;;;;;25.77;12.88;;;;;;;5.38;100.00;100902.22;6130957;23;20012;-89
2021/11/29 02:15:22;;;;;;;27.27;11.40;;;;;;;5.44;100.00;100909.66;6130900;23;20072;-89
2021/11/29 02:17:48;;;;;;;24.83;11.32;;;;;;;5.48;100.00;100911.91;6155637;23;19997;-90
2021/11/29 02:20:15;;;;;;;22.98;10.70;;;;;;;5.40;100.00;100908.25;6107137;23;20004;-89
2021/11/29 02:22:44;;;;;;;22.35;11.32;;;;;;;5.43;100.00;100905.31;6131259;23;20200;-88
2021/11/29 02:25:11;;;;;;;24.13;11.02;;;;;;;5.48;100.00;100913.75;6131392;23;20009;-88
2021/11/29 02:27:41;;;;;;;20.95;10.55;;;;;;;5.45;100.00;100904.19;6153684;23;20071;-89
2021/11/29 02:30:08;;;;;;;25.92;10.73;;;;;;;5.38;100.00;100895.06;6129979;23;20072;-89
2021/11/29 02:32:33;;;;;;;22.67;10.55;;;;;;;5.50;100.00;100919.75;6130985;23;20437;-89
2021/11/29 02:34:59;;;;;;;20.85;10.40;;;;;;;5.49;100.00;100921.59;6130478;23;20009;-88
2021/11/29 02:37:24;;;;;;;22.45;10.18;;;;;;;5.50;100.00;100922.44;6155524;23;20013;-88
2021/11/29 02:39:50;;;;;;;23.55;11.00;;;;;;;5.49;100.00;100926.09;6155796;23;20008;-88
2021/11/29 02:42:16;;;;;;;20.65;10.88;;;;;;;5.39;100.00;100914.56;6106332;23;20020;-87
2021/11/29 02:44:42;;;;;;;23.38;11.00;;;;;;;5.47;100.00;100915.56;6131085;23;20302;-88
2021/11/29 02:47:08;;;;;;;23.77;10.50;;;;;;;5.50;100.00;100917.97;6155697;23;20321;-87
2021/11/29 02:49:34;;;;;;;22.58;10.95;;;;;;;5.46;100.00;100915.72;6106767;23;20017;-88
2021/11/29 02:52:03;;;;;;;24.40;11.10;;;;;;;5.48;100.00;100919.09;6156034;23;20016;-88
2021/11/29 02:54:31;;;;;;;23.00;10.90;;;;;;;5.40;100.00;100902.91;6131462;23;20040;-88
2021/11/29 02:57:09;;;;;;;21.92;10.07;;;;;;;5.49;100.00;100923.41;6106434;23;20020;-89
2021/11/29 02:59:36;;;;;;;23.48;10.35;;;;;;;5.51;100.00;100929.47;6106526;23;20037;-88
2021/11/29 03:02:08;;;;;;;22.33;9.68;;;;;;;5.47;100.00;100918.22;6131287;23;20001;-87
2021/11/29 03:04:35;;;;;;;22.17;9.90;;;;;;;5.47;100.00;100928.03;6130971;23;20009;-89
2021/11/29 03:07:01;;;;;;;21.98;9.88;;;;;;;5.46;100.00;100921.88;6155517;23;20084;-88
2021/11/29 03:09:27;;;;;;;24.15;11.32;;;;;;;5.49;100.00;100929.59;6155722;23;20483;-87
2021/11/29 03:11:53;;;;;;;19.60;9.40;;;;;;;5.49;100.00;100929.59;6181669;23;20013;-87
2021/11/29 03:14:19;;;;;;;23.27;9.65;;;;;;;5.43;100.00;100921.31;6155687;23;20084;-87
2021/11/29 03:16:46;;;;;;;19.73;9.50;;;;;;;5.46;100.00;100923.72;6107662;23;20043;-87
2021/11/29 03:19:12;;;;;;;15.15;7.03;;;;;;;5.49;100.00;100928.75;6130980;23;20032;-88
2021/11/29 03:21:38;;;;;;;15.98;7.18;;;;;;;5.43;100.00;100919.50;6155743;23;20422;-87
2021/11/29 03:24:07;;;;;;;14.52;6.40;;;;;;;5.48;100.00;100927.91;6157588;23;20021;-87
2021/11/29 03:26:34;;;;;;;14.88;6.53;;;;;;;5.35;100.00;100907.84;6133457;23;20076;-86
2021/11/29 03:29:03;;;;;;;14.60;5.07;;;;;;;5.44;100.00;100917.66;6132864;23;20032;-88
2021/11/29 03:31:32;;;;;;;10.45;4.55;;;;;;;5.45;100.00;100919.34;6131988;23;20009;-88
2021/11/29 03:33:59;;;;;;;11.68;5.40;;;;;;;5.45;100.00;100920.19;6132426;23;20037;-86
2021/11/29 03:36:26;;;;;;;10.75;4.60;;;;;;;5.46;100.00;100908.53;6157509;23;20001;-89
2021/11/29 03:38:52;;;;;;;9.90;4.75;;;;;;;5.46;100.00;100918.38;6108930;23;20095;-88
2021/11/29 03:41:18;;;;;;;12.20;4.45;;;;;;;5.46;100.00;100910.38;6132480;23;20005;-88
2021/11/29 03:43:44;;;;;;;11.55;4.30;;;;;;;5.44;100.00;100910.50;6157558;23;20012;-88
2021/11/29 03:46:10;;;;;;;10.43;4.28;;;;;;;5.45;100.00;100914.88;6157238;23;20017;-85
2021/11/29 03:48:36;;;;;;;13.75;5.15;;;;;;;5.43;100.00;100906.16;6109164;23;20096;-88
2021/11/29 03:51:02;;;;;;;12.43;4.63;;;;;;;5.46;100.00;100913.03;6157688;23;20076;-88
2021/11/29 03:53:28;;;;;;;11.02;4.38;;;;;;;5.47;100.00;100912.03;6158080;23;20052;-88
2021/11/29 03:55:53;;;;;;;10.70;4.40;;;;;;;5.46;100.00;100905.03;6108738;23;20009;-86
2021/11/29 03:58:19;;;;;;;11.75;4.60;;;;;;;5.45;100.00;100904.19;6133286;23;20012;-88
2021/11/29 04:00:45;;;;;;;12.85;4.55;;;;;;;5.44;100.00;100899.00;6108038;23;20427;-88
2021/11/29 04:03:11;;;;;;;10.18;4.80;;;;;;;5.43;100.00;100900.81;6157399;23;20001;-87
2021/11/29 04:05:38;;;;;;;11.75;4.95;;;;;;;5.48;100.00;100911.09;6108261;23;20322;-88
2021/11/29 04:08:04;;;;;;;12.90;5.10;;;;;;;5.40;100.00;100893.09;6132515;23;20447;-88
2021/11/29 04:10:30;;;;;;;13.88;5.03;;;;;;;5.46;100.00;100911.22;6132413;23;20072;-89
2021/11/29 04:12:56;;;;;;;12.82;5.47;;;;;;;5.47;100.00;100912.03;6183484;23;20043;-87
2021/11/29 04:15:22;;;;;;;13.60;4.75;;;;;;;5.46;100.00;100907.69;6133797;23;20413;-87
2021/11/29 04:17:48;;;;;;;12.90;4.65;;;;;;;5.33;100.00;100893.81;6157959;23;20009;-88
2021/11/29 04:20:15;;;;;;;14.00;4.97;;;;;;;5.44;100.00;100907.84;6183725;23;20337;-86
2021/11/29 04:22:45;;;;;;;12.50;4.85;;;;;;;5.41;100.00;100894.78;6157753;23;20001;-89
2021/11/29 04:25:13;;;;;;;10.55;4.43;;;;;;;5.43;100.00;100903.50;6132398;23;20480;-87
2021/11/29 04:27:41;;;;;;;15.55;5.60;;;;;;;5.34;100.00;100890.13;6132658;23;20103;-90
2021/11/29 04:30:16;;;;;;;10.82;4.78;;;;;;;5.36;100.00;100889.03;6132644;23;20091;-88
2021/11/29 04:32:42;;;;;;;17.65;5.85;;;;;;;5.34;100.00;100890.97;6183041;23;20437;-87
2021/11/29 04:35:09;;;;;;;13.02;5.50;;;;;;;5.43;100.00;100905.31;6132728;23;20337;-88
2021/11/29 04:37:35;;;;;;;16.88;6.13;;;;;;;5.34;100.00;100887.47;6157439;23;20036;-91
2021/11/29 04:40:02;;;;;;;11.15;5.60;;;;;;;5.40;100.00;100905.56;6182697;23;20009;-88
2021/11/29 04:42:30;;;;;;;13.13;5.28;;;;;;;5.37;100.00;100900.53;6156161;23;20303;-88
2021/11/29 04:44:55;;;;;;;13.90;6.03;;;;;;;5.35;100.00;100895.34;6157089;23;20036;-91
2021/11/29 04:47:22;;;;;;;12.13;5.50;;;;;;;5.45;100.00;100914.88;6132304;23;20422;-89
2021/11/29 04:49:47;;;;;;;11.23;5.45;;;;;;;5.34;100.00;100896.31;6156865;23;20391;-89
2021/11/29 04:52:13;;;;;;;13.15;5.68;;;;;;;5.44;100.00;100904.31;6131760;23;20024;-88
2021/11/29 04:54:39;;;;;;;12.50;5.85;;;;;;;5.46;100.00;100916.53;6183134;23;20004;-87
2021/11/29 04:57:05;;;;;;;15.77;6.57;;;;;;;5.34;100.00;100895.47;6156332;23;20055;-89
2021/11/29 04:59:31;;;;;;;15.10;6.05;;;;;;;5.39;100.00;100903.91;6157101;23;20036;-88
2021/11/29 05:01:56;;;;;;;14.50;6.72;;;;;;;5.33;100.00;100896.47;6156516;23;20008;-89
2021/11/29 05:04:22;;;;;;;17.42;7.05;;;;;;;5.37;100.00;100903.19;6131119;23;20012;-89
2021/11/29 05:06:48;;;;;;;15.25;7.50;;;;;;;5.39;100.00;100898.56;6156436;23;20024;-88
2021/11/29 05:09:17;;;;;;;14.95;6.28;;;;;;;5.43;100.00;100906.16;6132148;23;20012;-87
2021/11/29 05:11:42;;;;;;;14.63;6.38;;;;;;;5.42;100.00;100909.78;6132476;23;20013;-89
2021/11/29 05:14:08;;;;;;;17.02;7.70;;;;;;;5.39;100.00;100910.06;6157271;23;20072;-90
2021/11/29 05:16:35;;;;;;;22.17;9.20;;;;;;;5.41;100.00;100901.94;6107882;23;20126;-88
2021/11/29 05:19:02;;;;;;;20.30;8.10;;;;;;;5.40;100.00;100902.91;6131818;23;20005;-89
2021/11/29 05:21:28;;;;;;;19.58;8.27;;;;;;;5.45;100.00;100914.88;6131628;23;20400;-88
2021/11/29 05:24:00;;;;;;;19.02;8.63;;;;;;;5.44;100.00;100904.31;6156245;23;20009;-87
2021/11/29 05:26:26;;;;;;;18.08;8.05;;;;;;;5.47;100.00;100904.03;6107304;23;20011;-87
2021/11/29 05:28:53;;;;;;;25.48;10.10;;;;;;;5.44;100.00;100894.50;6156057;23;20040;-88
2021/11/29 05:31:20;;;;;;;19.08;8.00;;;;;;;5.43;100.00;100892.81;6106887;23;20437;-88
2021/11/29 05:33:46;;;;;;;18.95;8.25;;;;;;;5.48;100.00;100898.59;6107111;23;20329;-87
2021/11/29 05:36:15;;;;;;;21.70;8.85;;;;;;;5.49;100.00;100896.75;6157176;23;20083;-88
2021/11/29 05:38:40;;;;;;;21.60;8.80;;;;;;;5.46;100.00;100884.53;6131815;23;20085;-89
2021/11/29 05:41:06;;;;;;;17.73;7.25;;;;;;;5.47;100.00;100899.53;6156287;23;20080;-87
2021/11/29 05:43:32;;;;;;;19.92;8.27;;;;;;;5.49;100.00;100891.41;6156350;23;19997;-88
2021/11/29 05:45:59;;;;;;;18.23;8.13;;;;;;;5.42;100.00;100884.94;6105975;23;20091;-89
2021/11/29 05:48:27;;;;;;;19.50;8.25;;;;;;;5.49;100.00;100886.09;6131451;23;20028;-89
2021/11/29 05:50:52;;;;;;;16.40;7.22;;;;;;;5.54;100.00;100893.69;6131819;23;20013;-88
2021/11/29 05:53:18;;;;;;;18.83;8.35;;;;;;;5.54;100.00;100896.34;6131794;23;20043;-87
2021/11/29 05:55:44;;;;;;;17.92;6.95;;;;;;;5.52;100.00;100893.81;6131918;23;20005;-88
2021/11/29 05:58:10;;;;;;;15.98;6.07;;;;;;;5.55;100.00;100892.69;6131092;23;20028;-89
2021/11/29 06:00:37;;;;;;;16.73;6.53;;;;;;;5.55;100.00;100898.84;6156366;23;20008;-88
2021/11/29 06:03:03;;;;;;;20.35;7.35;;;;;;;5.57;100.00;100894.22;6155490;23;20337;-88
2021/11/29 06:05:29;;;;;;;15.57;6.07;;;;;;;5.63;100.00;100895.50;6156440;23;20036;-86
2021/11/29 06:07:55;;;;;;;17.15;6.47;;;;;;;5.62;100.00;100888.47;6131267;23;20005;-87
2021/11/29 06:10:20;;;;;;;17.05;6.15;;;;;;;5.64;100.00;100892.69;6107576;23;20060;-88
2021/11/29 06:12:46;;;;;;;15.25;6.68;;;;;;;5.66;100.00;100890.72;6156007;23;20009;-89
2021/11/29 06:15:13;;;;;;;18.45;6.60;;;;;;;5.63;100.00;100891.00;6132235;23;20043;-88
2021/11/29 06:17:39;;;;;;;15.38;5.88;;;;;;;5.65;100.00;100904.19;6131702;23;20001;-88
2021/11/29 06:20:06;;;;;;;16.73;6.22;;;;;;;5.69;100.00;100908.28;6156159;23;20008;-89
2021/11/29 06:22:32;;;;;;;12.80;5.90;;;;;;;5.69;100.00;100910.97;6131032;23;20040;-88
2021/11/29 06:24:58;;;;;;;15.32;6.20;;;;;;;5.70;100.00;100915.28;6155754;23;20005;-87
2021/11/29 06:27:24;;;;;;;16.05;6.68;;;;;;;5.68;100.00;100910.09;6131843;23;20009;-88
2021/11/29 06:29:50;;;;;;;15.40;6.25;;;;;;;5.68;100.00;100912.75;6156103;23;20430;-87
2021/11/29 06:32:16;;;;;;;18.13;7.18;;;;;;;5.70;100.00;100916.13;6156590;23;20063;-88
2021/11/29 06:34:42;;;;;;;18.42;6.60;;;;;;;5.66;100.00;100909.41;6131320;23;20503;-86
2021/11/29 06:37:09;;;;;;;19.85;6.05;;;;;;;5.71;100.00;100914.31;6156246;23;20311;-88
2021/11/29 06:39:35;;;;;;;17.38;6.30;;;;;;;5.69;100.00;100914.47;6131956;23;20009;-87
2021/11/29 06:42:01;;;;;;;21.13;6.65;;;;;;;5.68;100.00;100912.75;6155903;23;20005;-89
2021/11/29 06:44:27;;;;;;;16.50;6.25;;;;;;;5.69;100.00;100914.47;6107293;23;20023;-86
2021/11/29 06:46:53;;;;;;;16.58;6.03;;;;;;;5.68;100.00;100912.75;6155796;23;20044;-90
2021/11/29 06:49:19;;;;;;;17.42;6.20;;;;;;;5.72;100.00;100926.69;6182562;23;20005;-87
2021/11/29 06:51:47;;;;;;;11.85;5.60;;;;;;;5.70;100.00;100933.97;6155437;23;20005;-87
2021/11/29 06:54:14;;;;;;;14.23;6.10;;;;;;;5.68;100.00;100941.25;6131333;23;20013;-87
2021/11/29 06:56:43;;;;;;;19.52;6.50;;;;;;;5.68;100.00;100947.44;6155364;23;20445;-88
2021/11/29 06:59:09;;;;;;;25.33;7.72;;;;;;;5.68;100.00;100946.59;6132699;23;20016;-87
2021/11/29 07:01:35;;;;;;;27.70;7.93;;;;;;;5.65;100.00;100954.88;6133223;23;20005;-87
2021/11/29 07:04:01;;;;;;;26.90;12.98;;;;;;;5.65;100.00;100968.22;6157536;23;20011;-89
2021/11/29 07:06:27;;;;;;;32.47;16.63;;;;;;;5.59;100.00;100961.63;6108432;23;20012;-87
2021/11/29 07:08:53;;;;;;;32.47;16.77;;;;;;;5.63;100.00;100971.03;6108574;23;20472;-88
2021/11/29 07:11:19;;;;;;;25.85;11.90;;;;;;;5.63;100.00;100976.34;6132863;23;20407;-88
2021/11/29 07:13:45;;;;;;;27.83;9.52;;;;;;;5.60;100.00;100971.31;6156880;23;20008;-87
2021/11/29 07:16:11;;;;;;;49.75;7.45;;;;;;;5.53;100.00;100963.97;6157460;23;20005;-87
2021/11/29 07:18:37;;;;;;;27.00;7.28;;;;;;;5.50;100.00;100970.44;6157551;23;20310;-86
2021/11/29 07:21:04;;;;;;;29.83;7.75;;;;;;;5.49;100.00;100972.28;6132504;23;20369;-87
2021/11/29 07:23:32;;;;;;;26.05;11.68;;;;;;;5.47;100.00;100984.88;6158011;23;20396;-88
2021/11/29 07:25:57;;;;;;;41.70;16.17;;;;;;;5.41;100.00;100973.94;6134025;23;20015;-88
2021/11/29 07:28:23;;;;;;;50.80;14.57;;;;;;;5.48;100.00;100991.09;6132975;23;20396;-89
2021/11/29 07:30:49;;;;;;;40.85;16.05;;;;;;;5.39;100.00;100984.72;6132537;23;20424;-89
2021/11/29 07:33:17;;;;;;;38.90;11.68;;;;;;;5.35;100.00;100983.34;6184445;23;20005;-87
2021/11/29 07:35:43;;;;;;;50.70;13.40;;;;;;;5.29;100.00;100975.88;6132495;23;20009;-88
2021/11/29 07:38:08;;;;;;;39.22;12.30;;;;;;;5.31;100.00;100992.56;6132507;23;20017;-88
2021/11/29 07:40:34;;;;;;;29.40;10.50;;;;;;;5.21;100.00;100995.22;6132596;23;20017;-87
2021/11/29 07:43:06;;;;;;;52.15;11.00;;;;;;;5.19;100.00;100993.69;6157275;23;20091;-89
2021/11/29 07:45:33;;;;;;;16.95;7.53;;;;;;;5.34;100.00;101002.13;6132586;23;20015;-88
2021/11/29 07:47:59;;;;;;;20.52;7.40;;;;;;;5.37;100.00;101002.72;6132153;23;20013;-88
2021/11/29 07:50:27;;;;;;;25.20;8.15;;;;;;;5.25;100.00;100985.97;6132139;23;20017;-87
2021/11/29 07:52:53;;;;;;;16.98;6.47;;;;;;;5.40;100.00;101009.56;6155496;23;20012;-88
2021/11/29 07:55:23;;;;;;;21.63;8.82;;;;;;;5.36;100.00;101002.84;6131991;23;20028;-87
2021/11/29 07:57:49;;;;;;;23.63;8.50;;;;;;;5.31;100.00;100997.06;6108638;23;20009;-87
2021/11/29 08:00:20;;;;;;;22.35;7.28;;;;;;;5.28;100.00;100995.50;6132318;23;20084;-87
2021/11/29 08:02:46;;;;;;;21.27;8.02;;;;;;;5.27;100.00;101000.00;6132439;23;20012;-88
2021/11/29 08:05:12;;;;;;;20.45;7.07;;;;;;;5.37;100.00;101002.72;6156920;23;20028;-88
2021/11/29 08:07:38;;;;;;;18.30;6.13;;;;;;;5.32;100.00;100988.94;6132191;23;20426;-89
2021/11/29 08:10:04;;;;;;;17.85;6.82;;;;;;;5.35;100.00;100998.50;6157374;23;20465;-87
2021/11/29 08:12:30;;;;;;;18.13;7.05;;;;;;;5.47;100.00;101010.72;6132600;23;20012;-87
2021/11/29 08:14:55;;;;;;;13.63;6.05;;;;;;;5.50;100.00;101024.66;6157534;23;20005;-86
2021/11/29 08:17:21;;;;;;;17.02;6.60;;;;;;;5.39;100.00;101010.56;6131866;23;20370;-88
2021/11/29 08:19:47;;;;;;;19.10;7.53;;;;;;;5.39;100.00;101027.41;6132314;23;20337;-88
2021/11/29 08:22:13;;;;;;;19.75;7.25;;;;;;;5.35;100.00;101031.34;6132431;23;20091;-89
2021/11/29 08:24:40;;;;;;;24.15;8.98;;;;;;;5.14;100.00;101030.56;6131738;23;20005;-87
2021/11/29 08:27:06;;;;;;;25.42;11.55;;;;;;;5.14;100.00;101039.38;6131245;23;20528;-87
2021/11/29 08:29:34;;;;;;;18.52;7.43;;;;;;;5.16;100.00;101025.91;6155347;23;20009;-86
2021/11/29 08:32:00;;;;;;;19.98;7.78;;;;;;;5.29;100.00;101040.72;6155856;23;20328;-87
2021/11/29 08:34:26;;;;;;;25.92;7.30;;;;;;;5.33;100.00;101037.78;6156519;23;20009;-88
2021/11/29 08:36:52;;;;;;;19.50;6.07;;;;;;;5.48;100.00;101042.59;6182127;23;20039;-87
2021/11/29 08:39:17;;;;;;;17.88;6.70;;;;;;;5.55;100.00;101045.56;6130188;23;20013;-90
2021/11/29 08:41:44;;;;;;;16.15;6.18;;;;;;;5.56;100.00;101044.59;6131824;23;20005;-87
2021/11/29 08:44:11;;;;;;;16.80;5.65;;;;;;;5.63;100.00;101043.03;6107321;23;20433;-89
2021/11/29 08:46:54;;;;;;;11.52;5.82;;;;;;;5.67;100.00;101041.81;6157905;23;20009;-87
2021/11/29 08:49:21;;;;;;;14.68;4.85;;;;;;;5.67;100.00;101047.16;6133395;23;20437;-88
2021/11/29 08:51:47;;;;;;;12.13;4.30;;;;;;;5.78;100.00;101061.34;6132957;23;20288;-87
2021/11/29 08:54:23;;;;;;;9.63;4.88;;;;;;;5.76;100.00;101052.63;6183706;23;20001;-88
2021/11/29 08:56:49;;;;;;;22.65;6.97;;;;;;;5.81;100.00;101061.06;6132314;23;20012;-87
2021/11/29 08:59:17;;;;;;;18.67;5.63;;;;;;;5.77;100.00;101038.28;6132298;23;20012;-88
2021/11/29 09:01:43;;;;;;;13.77;4.75;;;;;;;5.93;100.00;101051.97;6157121;23;20493;-89
2021/11/29 09:04:15;;;;;;;17.83;5.22;;;;;;;5.94;100.00;101043.84;6132483;23;20076;-87
2021/11/29 09:06:43;;;;;;;12.68;4.25;;;;;;;5.95;100.00;101044.69;6109718;23;20074;-87
2021/11/29 09:09:11;;;;;;;14.95;4.95;;;;;;;5.92;100.00;101053.78;6107903;23;20009;-86
2021/11/29 09:11:37;;;;;;;15.25;4.28;;;;;;;5.91;100.00;101043.25;6157090;23;20421;-87
2021/11/29 09:14:03;;;;;;;12.68;4.88;;;;;;;5.91;100.00;101043.25;6157612;23;20001;-86
2021/11/29 09:16:31;;;;;;;19.58;6.85;;;;;;;6.01;100.00;101049.47;6132238;23;20009;-88
2021/11/29 09:18:56;;;;;;;22.70;6.25;;;;;;;6.15;100.00;101066.91;6132034;23;20444;-87
2021/11/29 09:21:23;;;;;;;23.42;7.55;;;;;;;6.04;100.00;101045.69;6157152;23;20028;-87
2021/11/29 09:23:49;;;;;;;15.00;5.30;;;;;;;6.00;100.00;101049.59;6156305;23;20070;-87
2021/11/29 09:26:16;;;;;;;20.73;7.25;;;;;;;5.93;100.00;101057.31;6156901;23;20499;-88
2021/11/29 09:28:42;;;;;;;19.17;6.90;;;;;;;5.90;100.00;101049.56;6156520;23;20055;-87
2021/11/29 09:31:09;;;;;;;20.48;5.30;;;;;;;5.97;100.00;101073.91;6132050;23;20035;-86
2021/11/29 09:33:36;;;;;;;22.13;8.02;;;;;;;5.97;100.00;101069.41;6156321;23;20005;-88
2021/11/29 09:36:02;;;;;;;20.17;7.25;;;;;;;5.99;100.00;101082.63;6183797;23;20013;-88
2021/11/29 09:38:32;;;;;;;19.98;6.00;;;;;;;6.05;100.00;101076.72;6132197;23;20075;-89
2021/11/29 09:40:58;;;;;;;12.75;4.35;;;;;;;6.13;100.00;101075.03;6157167;23;20086;-90
2021/11/29 09:43:24;;;;;;;8.75;3.17;;;;;;;6.22;100.00;101064.50;6133022;23;20008;-87
2021/11/29 09:45:51;;;;;;;13.05;3.28;;;;;;;6.35;100.00;101070.41;6108116;23;20431;-89
2021/11/29 09:48:17;;;;;;;10.75;3.65;;;;;;;6.41;100.00;101075.22;6132851;23;20286;-88
2021/11/29 09:50:46;;;;;;;8.75;2.65;;;;;;;6.51;100.00;101076.06;6132349;23;20004;-90
2021/11/29 09:53:14;;;;;;;9.40;2.97;;;;;;;6.56;100.00;101081.81;6157204;23;20051;-89
2021/11/29 09:55:43;;;;;;;11.95;2.78;;;;;;;6.57;100.00;101088.00;6132771;23;20005;-91
2021/11/29 09:58:08;;;;;;;11.02;2.78;;;;;;;6.52;100.00;101077.72;6132760;23;20009;-92
2021/11/29 10:00:40;;;;;;;7.68;2.85;;;;;;;6.48;100.00;101081.66;6157861;23;20040;-90
2021/11/29 10:03:07;;;;;;;11.00;2.97;;;;;;;6.48;100.00;101084.31;6132351;23;20009;-88
2021/11/29 10:05:35;;;;;;;6.45;2.67;;;;;;;6.42;100.00;101074.22;6108258;23;19997;-89
2021/11/29 10:08:22;;;;;;;8.70;2.83;;;;;;;6.43;100.00;101073.25;6107853;23;20012;-90
2021/11/29 10:10:53;;;;;;;19.70;7.85;;;;;;;6.38;100.00;101060.31;6156529;23;20005;-90
2021/11/29 10:13:20;;;;;;;31.13;12.75;;;;;;;6.53;100.00;101079.41;6131964;23;20009;-90
2021/11/29 10:15:47;;;;;;;15.13;5.35;;;;;;;6.61;100.00;101078.69;6131709;23;20013;-88
2021/11/29 10:18:20;;;;;;;9.90;2.85;;;;;;;6.69;100.00;101091.34;6155824;23;20371;-90
2021/11/29 10:21:06;;;;;;;15.20;3.33;;;;;;;6.68;100.00;101087.00;6157247;23;20019;-90
2021/11/29 10:23:38;;;;;;;10.45;2.40;;;;;;;6.64;100.00;101082.91;6108484;23;20016;-90
2021/11/29 10:26:10;;;;;;;7.47;2.58;;;;;;;6.57;100.00;101082.66;6108345;23;20005;-88
2021/11/29 10:28:37;;;;;;;11.65;3.83;;;;;;;6.61;100.00;101092.06;6132418;23;20009;-90
2021/11/29 10:31:17;;;;;;;10.48;3.25;;;;;;;6.63;100.00;101086.59;6108242;23;20504;-90
2021/11/29 10:33:52;;;;;;;21.98;12.38;;;;;;;6.80;100.00;101083.16;6132562;23;20009;-89
2021/11/29 10:36:19;;;;;;;16.50;7.35;;;;;;;6.96;100.00;101099.50;6183046;23;20005;-91
2021/11/29 10:39:00;;;;;;;5.70;2.40;;;;;;;7.07;100.00;101101.16;6156373;23;20060;-90
2021/11/29 10:41:39;;;;;;;7.78;1.92;;;;;;;7.18;100.00;101119.69;6135080;23;20201;-91
2021/11/29 10:44:12;;;;;;;7.95;3.33;;;;;;;7.22;100.00;101115.75;6183616;23;20009;-90
2021/11/29 10:46:41;;;;;;;10.15;4.38;;;;;;;7.23;100.00;101121.94;6132237;23;20096;-90
2021/11/29 10:49:09;;;;;;;9.13;3.50;;;;;;;7.29;100.00;101116.00;6107731;23;20032;-88
2021/11/29 10:51:36;;;;;;;11.55;3.58;;;;;;;7.41;100.00;101130.91;6132488;23;20157;-91
2021/11/29 10:54:06;;;;;;;8.35;4.53;;;;;;;7.46;100.00;101120.59;6132164;23;20092;-90
2021/11/29 10:56:35;;;;;;;15.52;6.40;;;;;;;7.47;100.00;101097.34;6132464;23;19997;-89
2021/11/29 10:59:04;;;;;;;11.50;6.45;;;;;;;7.43;100.00;101117.34;6132046;23;20005;-90
2021/11/29 11:01:40;;;;;;;19.90;9.73;;;;;;;7.48;100.00;101129.28;6132859;23;20317;-89
2021/11/29 11:04:13;;;;;;;13.13;6.60;;;;;;;7.66;100.00;101117.81;6132031;23;20009;-90
2021/11/29 11:06:47;;;;;;;15.65;6.90;;;;;;;7.94;100.00;101121.34;6108244;23;20009;-91
2021/11/29 11:09:14;;;;;;;15.85;6.53;;;;;;;8.10;100.00;101120.69;6108134;23;20005;-90
2021/11/29 11:11:49;;;;;;;13.35;5.25;;;;;;;8.26;100.00;101120.03;6132756;23;20009;-90
2021/11/29 11:14:20;;;;;;;12.25;4.20;;;;;;;8.44;100.00;101126.28;6107456;23;20043;-91